Time;durP1;ratioP1;P1;durP2;ratioP2;P2;SDS_P1;SDS_P2;PMS_P1;PMS_P2;Temp;Humidity;BMP_temperature;BMP_pressure;BME280_temperature;BME280_humidity;BME280_pressure;Samples;Min_cycle;Max_cycle;Signal;HPM_P1;HPM_P2
2023/08/21 00:01:40;;;;;;;6.93;4.10;;;21.10;99.90;;;;;;5056410;28;20183;-93
2023/08/21 00:04:18;;;;;;;7.25;3.90;;;21.10;99.90;;;;;;5056393;28;20218;-94
2023/08/21 00:06:46;;;;;;;5.53;3.85;;;21.00;99.90;;;;;;5056442;28;20169;-95
2023/08/21 00:09:34;;;;;;;6.43;3.75;;;21.00;99.90;;;;;;5056200;28;20205;-94
2023/08/21 00:12:09;;;;;;;8.65;3.92;;;21.00;99.90;;;;;;5056343;28;20577;-95
2023/08/21 00:14:40;;;;;;;9.82;3.92;;;21.00;99.90;;;;;;5056085;28;20668;-94
2023/08/21 00:17:06;;;;;;;9.57;3.97;;;20.90;99.90;;;;;;5056418;28;20192;-94
2023/08/21 00:19:51;;;;;;;5.93;3.90;;;20.90;99.90;;;;;;5055715;28;20680;-95
2023/08/21 00:22:17;;;;;;;7.07;3.67;;;20.80;99.90;;;;;;5056243;28;20175;-93
2023/08/21 00:24:43;;;;;;;7.95;3.58;;;20.80;99.90;;;;;;5056231;28;20177;-96
2023/08/21 00:27:16;;;;;;;8.35;3.78;;;20.80;99.90;;;;;;5056338;28;20174;-94
2023/08/21 00:29:51;;;;;;;6.30;4.03;;;20.80;99.90;;;;;;5056041;28;20204;-96
2023/08/21 00:32:19;;;;;;;7.07;4.25;;;20.80;99.90;;;;;;5056333;28;20263;-96
2023/08/21 00:34:46;;;;;;;4.30;3.42;;;20.70;99.90;;;;;;5056154;28;20201;-94
2023/08/21 00:37:23;;;;;;;9.15;4.20;;;20.70;99.90;;;;;;5056288;28;20226;-94
2023/08/21 00:39:49;;;;;;;6.65;4.13;;;20.60;99.90;;;;;;5056010;28;20200;-94
2023/08/21 00:42:24;;;;;;;8.75;3.80;;;20.60;99.90;;;;;;5056108;28;20162;-95
2023/08/21 00:47:25;;;;;;;5.97;4.13;;;20.50;99.90;;;;;;5326972;23;20271;-96
2023/08/21 00:49:55;;;;;;;6.63;4.03;;;20.40;99.90;;;;;;5059208;28;20182;-96
2023/08/21 00:52:21;;;;;;;6.95;4.47;;;20.30;99.90;;;;;;5077855;28;20185;-96
2023/08/21 00:54:48;;;;;;;7.78;4.63;;;20.30;99.90;;;;;;5059555;28;20209;-96
2023/08/21 00:57:15;;;;;;;7.78;4.10;;;20.20;99.90;;;;;;5060211;28;20691;-96
2023/08/21 00:59:41;;;;;;;7.35;3.95;;;20.20;99.90;;;;;;5061049;28;20190;-96
2023/08/21 01:02:07;;;;;;;7.20;4.13;;;20.10;99.90;;;;;;5057925;28;20269;-96
2023/08/21 01:04:33;;;;;;;9.07;4.22;;;20.20;99.90;;;;;;5057334;28;20174;-96
2023/08/21 01:06:59;;;;;;;6.57;3.90;;;20.20;99.90;;;;;;5057279;28;20201;-96
2023/08/21 01:09:36;;;;;;;6.55;3.92;;;20.10;99.90;;;;;;5057206;28;20210;-96
2023/08/21 01:12:11;;;;;;;7.70;4.68;;;20.10;99.90;;;;;;5057755;28;20174;-96
2023/08/21 01:14:49;;;;;;;6.90;4.07;;;20.00;99.90;;;;;;5073938;28;20309;-96
2023/08/21 01:17:22;;;;;;;7.47;4.25;;;20.00;99.90;;;;;;5057971;28;20174;-96
2023/08/21 01:19:52;;;;;;;5.25;4.18;;;20.00;99.90;;;;;;5064851;28;20178;-96
2023/08/21 01:22:18;;;;;;;7.30;4.60;;;19.90;99.90;;;;;;5061961;28;20228;-96
2023/08/21 01:24:44;;;;;;;6.38;4.55;;;19.80;99.90;;;;;;5059075;28;20178;-96
2023/08/21 01:27:14;;;;;;;6.53;4.28;;;19.70;99.90;;;;;;5059052;28;20387;-96
2023/08/21 01:29:40;;;;;;;6.07;4.20;;;19.70;99.90;;;;;;5057303;28;20519;-96
2023/08/21 01:32:47;;;;;;;6.72;4.00;;;19.70;99.90;;;;;;5057004;28;20170;-96
2023/08/21 01:35:14;;;;;;;6.00;4.28;;;19.70;99.90;;;;;;5050736;28;20221;-96
2023/08/21 01:37:40;;;;;;;8.48;4.38;;;19.60;99.90;;;;;;5056740;28;20202;-96
2023/08/21 01:40:06;;;;;;;7.57;4.47;;;19.60;99.90;;;;;;5057214;28;20616;-96
2023/08/21 01:42:32;;;;;;;9.93;4.57;;;19.60;99.90;;;;;;5056081;28;20519;-96
2023/08/21 01:44:58;;;;;;;6.28;4.40;;;19.50;99.90;;;;;;5056637;28;20200;-96
2023/08/21 01:47:26;;;;;;;7.78;4.38;;;19.40;99.90;;;;;;5056280;28;20327;-96
2023/08/21 01:49:52;;;;;;;6.93;4.20;;;19.50;99.90;;;;;;5056484;28;20178;-96
2023/08/21 01:52:18;;;;;;;7.88;4.40;;;19.40;99.90;;;;;;5056606;28;20197;-96
2023/08/21 01:54:44;;;;;;;8.05;4.68;;;19.40;99.90;;;;;;5056570;28;20221;-96
2023/08/21 01:57:10;;;;;;;8.15;4.63;;;19.30;99.90;;;;;;5056783;28;20319;-95
2023/08/21 01:59:36;;;;;;;8.80;5.05;;;19.30;99.90;;;;;;5056467;28;20186;-96
2023/08/21 02:02:02;;;;;;;6.50;4.60;;;19.20;99.90;;;;;;5057269;28;20178;-96
2023/08/21 02:04:28;;;;;;;8.45;4.78;;;19.20;99.90;;;;;;5059069;28;20178;-96
2023/08/21 02:06:53;;;;;;;8.80;4.55;;;19.20;99.90;;;;;;5056655;28;20224;-96
2023/08/21 02:09:27;;;;;;;9.57;4.63;;;19.20;99.90;;;;;;5056740;28;20209;-96
2023/08/21 02:11:53;;;;;;;7.93;4.38;;;19.10;99.90;;;;;;5056206;28;20181;-96
2023/08/21 02:14:22;;;;;;;6.22;4.50;;;19.10;99.90;;;;;;5056096;28;20214;-95
2023/08/21 02:16:48;;;;;;;7.40;4.50;;;19.20;99.90;;;;;;5055735;28;20676;-96
2023/08/21 02:19:14;;;;;;;10.73;5.00;;;19.20;99.90;;;;;;5055797;28;20283;-95
2023/08/21 02:21:40;;;;;;;6.93;4.47;;;19.20;99.90;;;;;;5056275;28;20174;-96
2023/08/21 02:24:06;;;;;;;6.70;4.80;;;19.20;99.90;;;;;;5055926;28;20174;-96
2023/08/21 02:26:31;;;;;;;5.95;4.05;;;19.10;99.90;;;;;;5055859;28;20178;-96
2023/08/21 02:28:58;;;;;;;17.98;4.75;;;19.00;99.90;;;;;;5055576;28;20174;-96
2023/08/21 02:31:23;;;;;;;7.13;4.25;;;18.90;99.90;;;;;;5054734;28;20182;-96
2023/08/21 02:33:49;;;;;;;15.27;4.68;;;18.90;99.90;;;;;;5054992;28;20206;-96
2023/08/21 02:36:18;;;;;;;5.40;4.70;;;18.90;99.90;;;;;;5055588;28;20197;-96
2023/08/21 02:38:46;;;;;;;5.93;4.60;;;18.90;99.90;;;;;;5056042;28;20174;-96
2023/08/21 02:41:12;;;;;;;7.18;4.60;;;18.80;99.90;;;;;;5056035;28;20170;-96
2023/08/21 02:43:39;;;;;;;9.73;4.68;;;18.80;99.90;;;;;;5055351;28;20185;-96
2023/08/21 02:46:05;;;;;;;6.63;4.85;;;18.80;99.90;;;;;;5058545;28;20217;-96
2023/08/21 02:48:36;;;;;;;9.23;5.07;;;18.80;99.90;;;;;;5058665;28;20187;-96
2023/08/21 02:51:02;;;;;;;5.88;4.95;;;18.70;99.90;;;;;;5058849;28;20188;-96
2023/08/21 02:53:28;;;;;;;5.47;4.97;;;18.70;99.90;;;;;;5058982;28;20213;-95
2023/08/21 02:55:54;;;;;;;7.53;5.05;;;18.70;99.90;;;;;;5058757;28;20181;-95
2023/08/21 02:58:21;;;;;;;6.32;4.65;;;18.70;99.90;;;;;;5059085;28;20226;-95
2023/08/21 03:00:47;;;;;;;8.40;5.18;;;18.60;99.90;;;;;;5058579;28;20260;-96
2023/08/21 03:03:13;;;;;;;6.28;4.43;;;18.60;99.90;;;;;;5058169;28;20208;-96
2023/08/21 03:05:38;;;;;;;6.85;5.38;;;18.70;99.90;;;;;;5058492;28;20587;-96
2023/08/21 03:08:11;;;;;;;5.72;4.70;;;18.70;99.90;;;;;;5058607;28;20655;-96
2023/08/21 03:10:37;;;;;;;9.18;4.90;;;18.60;99.90;;;;;;5058481;28;20193;-96
2023/08/21 03:13:03;;;;;;;7.53;5.32;;;18.60;99.90;;;;;;5057740;28;20670;-96
2023/08/21 03:15:29;;;;;;;6.85;5.07;;;18.50;99.90;;;;;;5058463;28;20308;-96
2023/08/21 03:18:00;;;;;;;8.18;4.97;;;18.40;99.90;;;;;;5057906;28;20211;-96
2023/08/21 03:20:25;;;;;;;6.32;4.45;;;18.40;99.90;;;;;;5058083;28;20200;-96
2023/08/21 03:22:51;;;;;;;6.78;5.00;;;18.30;99.90;;;;;;5057866;28;20583;-96
2023/08/21 03:25:17;;;;;;;7.38;5.10;;;18.30;99.90;;;;;;5075809;28;20230;-96
2023/08/21 03:27:45;;;;;;;5.68;4.47;;;18.30;99.90;;;;;;5058485;28;20184;-96
2023/08/21 03:30:14;;;;;;;8.65;5.30;;;18.30;99.90;;;;;;5057770;28;20608;-96
2023/08/21 03:32:41;;;;;;;8.25;4.90;;;18.30;99.90;;;;;;5057796;28;20181;-96
2023/08/21 03:35:07;;;;;;;5.05;4.35;;;18.30;99.90;;;;;;5057726;28;20212;-96
2023/08/21 03:37:32;;;;;;;6.82;4.50;;;18.40;99.90;;;;;;5057707;28;20525;-96
2023/08/21 03:40:03;;;;;;;5.82;4.50;;;18.40;99.90;;;;;;5057838;28;20173;-96
2023/08/21 03:42:29;;;;;;;9.02;4.78;;;18.40;99.90;;;;;;5058062;28;20660;-95
2023/08/21 03:44:54;;;;;;;5.07;4.28;;;18.40;99.90;;;;;;5057899;28;20177;-95
2023/08/21 03:47:20;;;;;;;11.40;4.53;;;18.40;99.90;;;;;;5054395;28;20237;-96
2023/08/21 03:49:50;;;;;;;6.28;4.60;;;18.30;99.90;;;;;;5054352;28;20270;-95
2023/08/21 03:52:16;;;;;;;4.80;4.30;;;18.40;99.90;;;;;;5054408;28;20178;-96
2023/08/21 03:54:41;;;;;;;5.20;4.10;;;18.30;99.90;;;;;;5054267;28;20206;-96
2023/08/21 03:57:07;;;;;;;6.60;4.60;;;18.40;99.90;;;;;;5054352;28;20185;-95
2023/08/21 03:59:36;;;;;;;5.68;4.35;;;18.30;99.90;;;;;;5054011;28;20595;-95
2023/08/21 04:02:02;;;;;;;8.48;4.55;;;18.30;99.90;;;;;;5054023;28;20174;-96
2023/08/21 04:04:28;;;;;;;7.75;4.80;;;18.20;99.90;;;;;;5054193;28;20176;-95
2023/08/21 04:06:54;;;;;;;8.80;5.10;;;18.20;99.90;;;;;;5055443;28;20178;-95
2023/08/21 04:09:32;;;;;;;12.18;4.90;;;18.10;99.90;;;;;;5053981;28;20174;-95
2023/08/21 04:11:57;;;;;;;6.32;4.30;;;18.00;99.90;;;;;;5054018;28;20185;-96
2023/08/21 04:14:30;;;;;;;5.38;4.20;;;18.00;99.90;;;;;;5053839;28;20209;-94
2023/08/21 04:17:06;;;;;;;4.88;4.05;;;18.00;99.90;;;;;;5063705;28;20185;-95
2023/08/21 04:19:33;;;;;;;7.05;4.53;;;18.00;99.90;;;;;;5073837;28;20169;-95
2023/08/21 04:21:59;;;;;;;8.82;4.40;;;18.00;99.90;;;;;;5073856;28;20173;-95
2023/08/21 04:24:25;;;;;;;8.38;4.80;;;17.90;99.90;;;;;;5073940;28;20184;-94
2023/08/21 04:26:51;;;;;;;4.93;4.43;;;18.00;99.90;;;;;;5077880;28;20642;-95
2023/08/21 04:29:16;;;;;;;7.45;4.60;;;17.90;99.90;;;;;;5077996;28;20179;-95
2023/08/21 04:31:42;;;;;;;7.35;4.68;;;17.90;99.90;;;;;;5061358;28;20180;-94
2023/08/21 04:34:08;;;;;;;5.30;4.78;;;18.00;99.90;;;;;;5078058;28;20212;-95
2023/08/21 04:36:33;;;;;;;9.18;5.10;;;18.00;99.90;;;;;;5079614;28;20679;-94
2023/08/21 04:39:02;;;;;;;6.65;4.35;;;18.00;99.90;;;;;;5077933;28;20173;-94
2023/08/21 04:41:28;;;;;;;7.00;5.07;;;18.10;99.90;;;;;;5079029;28;20165;-94
2023/08/21 04:43:53;;;;;;;7.10;5.50;;;18.10;99.90;;;;;;5078324;28;20611;-95
2023/08/21 04:46:19;;;;;;;9.98;6.35;;;18.10;99.90;;;;;;5077589;28;20607;-94
2023/08/21 04:48:45;;;;;;;8.18;5.55;;;18.20;99.90;;;;;;5077112;28;20177;-94
2023/08/21 04:51:26;;;;;;;7.47;5.75;;;18.30;99.90;;;;;;5077659;28;20213;-94
2023/08/21 04:53:53;;;;;;;6.60;5.43;;;18.30;99.90;;;;;;5063465;28;20243;-94
2023/08/21 04:56:19;;;;;;;7.68;5.47;;;18.30;99.90;;;;;;5057545;28;20178;-94
2023/08/21 04:58:57;;;;;;;6.55;5.07;;;18.30;99.90;;;;;;5073320;28;20181;-94
2023/08/21 05:01:22;;;;;;;7.28;5.75;;;18.30;99.90;;;;;;5077356;28;20195;-94
2023/08/21 05:03:48;;;;;;;8.10;5.00;;;18.40;99.90;;;;;;5077045;28;20264;-95
2023/08/21 05:06:15;;;;;;;7.43;5.15;;;18.30;99.90;;;;;;5077526;28;20173;-94
2023/08/21 05:08:40;;;;;;;7.72;4.90;;;18.30;99.90;;;;;;5077391;28;20246;-94
2023/08/21 05:11:06;;;;;;;6.93;4.80;;;18.30;99.90;;;;;;5077712;28;20236;-94
2023/08/21 05:13:32;;;;;;;5.43;4.68;;;18.30;99.90;;;;;;5078156;28;20519;-94
2023/08/21 05:15:58;;;;;;;7.53;5.22;;;18.40;99.90;;;;;;5077145;28;20197;-94
2023/08/21 05:18:25;;;;;;;8.55;5.72;;;18.50;99.90;;;;;;5076932;28;20208;-94
2023/08/21 05:20:55;;;;;;;10.50;5.65;;;18.60;99.90;;;;;;5076948;28;20177;-94
2023/08/21 05:23:20;;;;;;;10.13;6.13;;;18.70;99.90;;;;;;5076879;28;20181;-94
2023/08/21 05:25:48;;;;;;;11.32;5.90;;;18.70;99.90;;;;;;5077068;28;20173;-94
2023/08/21 05:28:14;;;;;;;8.13;5.90;;;18.70;99.90;;;;;;5060308;28;20265;-96
2023/08/21 05:30:46;;;;;;;9.45;5.93;;;18.80;99.90;;;;;;5076758;28;20209;-93
2023/08/21 05:33:20;;;;;;;10.38;5.97;;;18.80;99.90;;;;;;5076779;28;20169;-93
2023/08/21 05:35:46;;;;;;;12.20;7.55;;;18.70;99.90;;;;;;5076361;28;20186;-93
2023/08/21 05:38:12;;;;;;;9.43;6.10;;;18.80;99.90;;;;;;5077887;28;20175;-93
2023/08/21 05:40:51;;;;;;;11.65;5.95;;;18.80;99.90;;;;;;5076946;28;20210;-93
2023/08/21 05:43:17;;;;;;;11.07;7.13;;;18.80;99.90;;;;;;5076680;28;20169;-95
2023/08/21 05:45:50;;;;;;;8.57;6.47;;;18.90;99.90;;;;;;5076049;28;20178;-95
2023/08/21 05:48:21;;;;;;;12.05;7.18;;;18.80;99.90;;;;;;5056434;28;20235;-94
2023/08/21 05:50:51;;;;;;;9.60;6.50;;;18.90;99.90;;;;;;5055982;28;20548;-95
2023/08/21 05:53:17;;;;;;;10.20;6.75;;;18.90;99.90;;;;;;5055708;28;20173;-94
2023/08/21 05:55:43;;;;;;;6.88;6.15;;;19.00;99.90;;;;;;5056221;28;20231;-93
2023/08/21 05:58:09;;;;;;;11.10;7.10;;;19.00;99.90;;;;;;5056396;28;20201;-94
2023/08/21 06:00:41;;;;;;;9.48;6.20;;;19.10;99.90;;;;;;5056253;28;20263;-94
2023/08/21 06:03:19;;;;;;;11.13;7.28;;;19.20;99.90;;;;;;5053747;28;20174;-94
2023/08/21 06:05:46;;;;;;;9.15;6.10;;;19.30;99.90;;;;;;5055342;28;20173;-93
2023/08/21 06:08:13;;;;;;;13.18;7.05;;;19.40;99.90;;;;;;5055690;28;20174;-93
2023/08/21 06:10:44;;;;;;;8.52;6.40;;;19.50;99.90;;;;;;5056851;28;20174;-94
2023/08/21 06:13:15;;;;;;;10.32;7.15;;;19.60;99.90;;;;;;5054347;28;20189;-94
2023/08/21 06:15:45;;;;;;;10.75;6.35;;;19.70;99.90;;;;;;5055725;28;20182;-93
2023/08/21 06:18:13;;;;;;;12.30;6.50;;;19.70;99.90;;;;;;5055011;28;20217;-93
2023/08/21 06:20:53;;;;;;;8.80;6.30;;;19.70;99.90;;;;;;5055322;28;20264;-94
2023/08/21 06:23:21;;;;;;;8.45;6.00;;;19.70;99.90;;;;;;5055379;28;20631;-94
2023/08/21 06:25:51;;;;;;;9.43;6.47;;;19.90;99.90;;;;;;5055611;28;20208;-94
2023/08/21 06:28:26;;;;;;;10.45;6.25;;;20.00;99.90;;;;;;5055062;28;20189;-94
2023/08/21 06:31:21;;;;;;;11.20;6.57;;;20.20;99.90;;;;;;5055409;28;20178;-94
2023/08/21 06:34:02;;;;;;;9.25;6.32;;;20.30;99.90;;;;;;5055536;28;20255;-91
2023/08/21 06:36:33;;;;;;;7.85;5.43;;;20.50;99.90;;;;;;5056146;28;20190;-93
2023/08/21 06:39:01;;;;;;;7.20;5.50;;;20.50;99.90;;;;;;5054805;28;20516;-94
2023/08/21 06:41:27;;;;;;;9.25;5.63;;;20.60;99.90;;;;;;5055546;28;20201;-93
2023/08/21 06:43:52;;;;;;;11.75;6.10;;;20.80;99.90;;;;;;5056219;28;20620;-93
2023/08/21 06:46:18;;;;;;;8.90;5.55;;;20.90;99.90;;;;;;5059190;28;20675;-94
2023/08/21 06:48:44;;;;;;;9.93;5.47;;;21.00;99.90;;;;;;5074800;28;20181;-94
2023/08/21 06:51:12;;;;;;;6.13;5.03;;;21.10;99.90;;;;;;5075120;28;20467;-93
2023/08/21 06:53:37;;;;;;;9.77;5.18;;;21.20;99.90;;;;;;5075638;28;20231;-93
2023/08/21 06:56:03;;;;;;;11.63;5.35;;;21.20;99.90;;;;;;5075127;28;20184;-93
2023/08/21 06:58:29;;;;;;;7.60;4.88;;;21.10;99.90;;;;;;5075303;28;20608;-93
2023/08/21 07:01:05;;;;;;;5.80;4.70;;;21.20;99.90;;;;;;5073400;28;20235;-95
2023/08/21 07:03:34;;;;;;;6.53;4.50;;;21.20;99.90;;;;;;5075837;28;20611;-93
2023/08/21 07:06:00;;;;;;;5.40;4.45;;;21.30;99.90;;;;;;5074602;28;20185;-94
2023/08/21 07:08:27;;;;;;;8.75;4.80;;;21.30;99.90;;;;;;5075460;28;20173;-94
2023/08/21 07:11:03;;;;;;;6.53;4.15;;;21.30;99.90;;;;;;5074696;28;20181;-93
2023/08/21 07:13:29;;;;;;;7.32;4.32;;;21.40;99.90;;;;;;5057913;28;20259;-92
2023/08/21 07:15:55;;;;;;;6.63;4.28;;;21.50;99.90;;;;;;5074781;28;20268;-94
2023/08/21 07:18:21;;;;;;;6.03;4.00;;;21.50;99.90;;;;;;5074385;28;20177;-92
2023/08/21 07:20:53;;;;;;;9.48;4.13;;;21.60;99.90;;;;;;5074389;28;20277;-92
2023/08/21 07:23:19;;;;;;;6.57;3.92;;;21.60;99.90;;;;;;5073718;28;20260;-92
2023/08/21 07:25:44;;;;;;;6.30;4.13;;;21.60;99.90;;;;;;5075568;28;20573;-93
2023/08/21 07:28:10;;;;;;;8.10;4.25;;;21.60;99.90;;;;;;5075531;28;20181;-92
2023/08/21 07:30:38;;;;;;;8.40;3.42;;;21.70;99.90;;;;;;5075060;28;20252;-94
2023/08/21 07:33:05;;;;;;;8.07;3.45;;;21.90;99.90;;;;;;5075172;28;20169;-93
2023/08/21 07:35:32;;;;;;;9.77;3.25;;;22.10;99.90;;;;;;5074327;28;20239;-93
2023/08/21 07:38:05;;;;;;;6.75;2.97;;;22.30;99.90;;;;;;5074526;28;20177;-94
2023/08/21 07:40:50;;;;;;;7.80;3.47;;;22.20;99.90;;;;;;5074211;28;20181;-92
2023/08/21 07:43:15;;;;;;;8.18;2.90;;;22.30;99.90;;;;;;5074547;28;20174;-92
2023/08/21 07:45:41;;;;;;;5.85;3.60;;;22.20;99.90;;;;;;5057759;28;20180;-95
2023/08/21 07:48:07;;;;;;;4.97;2.60;;;22.10;99.90;;;;;;5075036;28;20259;-93
2023/08/21 07:50:34;;;;;;;6.40;2.90;;;22.10;99.90;;;;;;5074270;28;20188;-92
2023/08/21 07:53:00;;;;;;;6.10;2.78;;;22.00;99.90;;;;;;5056952;28;20185;-92
2023/08/21 07:55:26;;;;;;;8.25;2.88;;;22.00;99.90;;;;;;5073993;28;20666;-93
2023/08/21 07:57:52;;;;;;;5.78;2.80;;;22.00;99.90;;;;;;5073283;28;20169;-93
2023/08/21 08:00:20;;;;;;;11.90;3.25;;;21.90;99.90;;;;;;5074280;28;20181;-92
2023/08/21 08:02:45;;;;;;;5.97;2.58;;;21.90;99.90;;;;;;5073957;28;20611;-92
2023/08/21 08:05:11;;;;;;;9.50;3.03;;;21.90;99.90;;;;;;5074897;28;20177;-94
2023/08/21 08:07:37;;;;;;;3.63;2.40;;;22.00;99.90;;;;;;5074642;28;20500;-92
2023/08/21 08:10:03;;;;;;;6.63;2.75;;;22.20;99.90;;;;;;5073857;28;20177;-92
2023/08/21 08:12:28;;;;;;;7.05;2.65;;;22.30;99.90;;;;;;5075057;28;20513;-96
2023/08/21 08:14:54;;;;;;;7.43;2.80;;;22.30;99.90;;;;;;5074350;28;20266;-95
2023/08/21 08:17:20;;;;;;;8.63;3.05;;;22.30;99.90;;;;;;5057102;28;20173;-93
2023/08/21 08:19:46;;;;;;;9.23;2.88;;;22.30;99.90;;;;;;5073776;28;20251;-93
2023/08/21 08:22:16;;;;;;;5.82;2.60;;;22.40;99.90;;;;;;5074155;28;20169;-92
2023/08/21 08:24:42;;;;;;;7.05;2.85;;;22.50;99.90;;;;;;5057346;28;20533;-93
2023/08/21 08:27:08;;;;;;;7.95;2.67;;;22.50;99.90;;;;;;5075253;28;20260;-94
2023/08/21 08:29:34;;;;;;;6.10;2.90;;;22.50;99.90;;;;;;5058465;28;20186;-94
2023/08/21 08:31:59;;;;;;;4.28;2.15;;;22.40;99.90;;;;;;5054170;28;20178;-95
2023/08/21 08:34:25;;;;;;;7.32;2.80;;;22.30;99.90;;;;;;5054117;28;20594;-95
2023/08/21 08:36:51;;;;;;;5.00;2.50;;;22.20;99.90;;;;;;5054092;28;20177;-93
2023/08/21 08:39:17;;;;;;;4.57;2.47;;;22.20;99.90;;;;;;5053802;28;20178;-93
2023/08/21 08:41:56;;;;;;;5.45;2.30;;;22.20;99.90;;;;;;5053594;28;20181;-92
2023/08/21 08:44:25;;;;;;;6.40;3.03;;;22.10;99.90;;;;;;5053593;28;20177;-92
2023/08/21 08:46:51;;;;;;;6.78;2.70;;;22.10;99.90;;;;;;5053118;28;20318;-94
2023/08/21 08:49:17;;;;;;;4.80;2.60;;;22.20;99.90;;;;;;5053681;28;20188;-95
2023/08/21 08:51:44;;;;;;;7.32;3.00;;;22.30;99.90;;;;;;5053326;28;20574;-93
2023/08/21 08:54:12;;;;;;;5.15;2.90;;;22.30;99.90;;;;;;5053450;28;20210;-92
2023/08/21 08:56:37;;;;;;;4.18;2.20;;;22.40;99.90;;;;;;5053199;28;20170;-92
2023/08/21 08:59:05;;;;;;;5.30;2.58;;;22.50;99.90;;;;;;5065305;28;20197;-91
2023/08/21 09:01:32;;;;;;;5.75;2.40;;;22.50;99.90;;;;;;5073311;28;20276;-93
2023/08/21 09:03:58;;;;;;;5.95;2.70;;;22.70;99.90;;;;;;5073500;28;20256;-91
2023/08/21 09:06:24;;;;;;;5.10;2.20;;;22.70;99.90;;;;;;5073452;28;20197;-92
2023/08/21 09:08:57;;;;;;;5.10;2.53;;;22.80;99.90;;;;;;5073584;28;20207;-95
2023/08/21 09:11:33;;;;;;;6.18;2.60;;;22.90;99.90;;;;;;5074624;28;20173;-93
2023/08/21 09:13:58;;;;;;;7.47;2.50;;;22.90;99.90;;;;;;5077171;28;20287;-92
2023/08/21 09:16:25;;;;;;;4.07;2.38;;;23.00;99.90;;;;;;5077293;28;20205;-92
2023/08/21 09:18:56;;;;;;;6.90;2.63;;;23.10;99.90;;;;;;5078084;28;20173;-93
2023/08/21 09:21:57;;;;;;;5.43;2.15;;;23.30;99.90;;;;;;5071660;28;20283;-94
2023/08/21 09:24:23;;;;;;;8.13;2.35;;;23.40;99.90;;;;;;5077366;28;20490;-93
2023/08/21 09:26:50;;;;;;;3.97;1.83;;;23.40;99.90;;;;;;5077022;28;20177;-92
2023/08/21 09:29:16;;;;;;;5.35;1.65;;;23.30;99.90;;;;;;5076768;28;20216;-93
2023/08/21 09:31:45;;;;;;;8.23;1.95;;;23.20;99.90;;;;;;5077340;28;20189;-93
2023/08/21 09:34:11;;;;;;;5.43;1.88;;;23.40;99.90;;;;;;5076803;28;20205;-92
2023/08/21 09:36:39;;;;;;;6.13;2.10;;;23.50;99.90;;;;;;5076660;28;20173;-92
2023/08/21 09:39:06;;;;;;;5.10;1.90;;;23.50;99.90;;;;;;5076505;28;20184;-93
2023/08/21 09:41:34;;;;;;;3.60;1.55;;;23.50;99.90;;;;;;5076773;28;20191;-96
2023/08/21 09:44:00;;;;;;;6.50;1.88;;;23.60;99.90;;;;;;5076503;28;20684;-91
2023/08/21 09:46:27;;;;;;;3.40;1.63;;;23.60;99.90;;;;;;5056215;28;20279;-93
2023/08/21 09:48:54;;;;;;;5.47;1.70;;;23.70;99.90;;;;;;5056412;28;20173;-93
2023/08/21 09:51:36;;;;;;;6.32;1.60;;;24.00;99.90;;;;;;5056816;28;20272;-95
2023/08/21 09:54:03;;;;;;;5.60;1.85;;;24.20;99.90;;;;;;5056772;28;20259;-94
2023/08/21 09:56:29;;;;;;;6.50;1.52;;;24.20;99.90;;;;;;5056783;28;20178;-91
2023/08/21 09:58:55;;;;;;;3.45;1.50;;;24.00;99.90;;;;;;5056832;28;20170;-93
2023/08/21 10:01:33;;;;;;;5.15;1.63;;;24.10;99.90;;;;;;5056958;28;20182;-96
2023/08/21 10:04:02;;;;;;;5.80;1.63;;;24.10;99.90;;;;;;5057393;28;20300;-93
2023/08/21 10:06:29;;;;;;;4.15;1.55;;;24.10;99.90;;;;;;5058162;28;20178;-95
2023/08/21 10:08:56;;;;;;;6.15;1.85;;;24.10;99.90;;;;;;5056546;28;20201;-91
2023/08/21 10:11:23;;;;;;;4.80;1.50;;;23.90;99.90;;;;;;5056176;28;20282;-93
2023/08/21 10:13:51;;;;;;;7.18;2.00;;;23.90;99.90;;;;;;5057308;28;20539;-94
2023/08/21 10:16:17;;;;;;;4.68;1.45;;;23.90;99.90;;;;;;5055708;28;20178;-94
2023/08/21 10:18:48;;;;;;;3.33;1.48;;;23.80;99.90;;;;;;5056249;28;20181;-92
2023/08/21 10:21:25;;;;;;;5.00;1.60;;;23.80;99.90;;;;;;5055819;28;20193;-93
2023/08/21 10:23:54;;;;;;;6.78;1.77;;;23.90;99.90;;;;;;5055815;28;20197;-94
2023/08/21 10:26:21;;;;;;;4.25;1.55;;;24.00;99.90;;;;;;5056030;28;20174;-92
2023/08/21 10:28:52;;;;;;;6.97;1.83;;;24.00;99.90;;;;;;5056116;28;20180;-92
2023/08/21 10:31:40;;;;;;;5.25;1.52;;;24.10;99.90;;;;;;5055568;28;20202;-91
2023/08/21 10:34:11;;;;;;;7.10;1.55;;;24.20;99.90;;;;;;5056299;28;20667;-94
2023/08/21 10:36:42;;;;;;;5.80;1.75;;;24.30;99.90;;;;;;5055845;28;20182;-94
2023/08/21 10:39:21;;;;;;;7.10;1.67;;;24.40;99.90;;;;;;5057027;28;20169;-90
2023/08/21 10:42:14;;;;;;;5.07;1.63;;;24.20;99.90;;;;;;5056088;28;20174;-94
2023/08/21 10:44:42;;;;;;;7.22;1.58;;;24.20;99.90;;;;;;5055433;28;20170;-96
2023/08/21 10:47:28;;;;;;;5.93;1.58;;;24.30;99.90;;;;;;5068352;28;20257;-93
2023/08/21 10:50:03;;;;;;;3.38;1.20;;;24.40;99.90;;;;;;5061268;28;20631;-92
2023/08/21 10:52:38;;;;;;;5.47;1.50;;;24.40;99.90;;;;;;5075545;28;20611;-94
2023/08/21 10:55:04;;;;;;;7.40;1.50;;;24.30;99.90;;;;;;5073743;28;20647;-92
2023/08/21 10:57:31;;;;;;;5.55;1.55;;;24.10;99.90;;;;;;5075170;28;20231;-91
2023/08/21 10:59:59;;;;;;;4.53;1.35;;;24.00;99.90;;;;;;5076105;28;20185;-90
2023/08/21 11:02:31;;;;;;;5.72;1.40;;;24.00;99.90;;;;;;5075672;28;20178;-93
2023/08/21 11:04:58;;;;;;;7.00;1.42;;;24.00;99.90;;;;;;5075542;28;20567;-95
2023/08/21 11:07:25;;;;;;;4.32;1.50;;;23.90;99.90;;;;;;5075447;28;20227;-95
2023/08/21 11:09:51;;;;;;;8.98;1.52;;;23.80;99.90;;;;;;5076911;28;20268;-94
2023/08/21 11:12:23;;;;;;;4.40;1.25;;;23.80;99.90;;;;;;5076003;28;20582;-95
2023/08/21 11:14:49;;;;;;;8.05;1.60;;;24.00;99.90;;;;;;5076022;28;20216;-91
2023/08/21 11:17:15;;;;;;;5.55;1.40;;;24.10;99.90;;;;;;5074953;28;20181;-94
2023/08/21 11:19:42;;;;;;;5.63;1.35;;;24.40;99.90;;;;;;5059328;28;20180;-94
2023/08/21 11:22:11;;;;;;;5.55;1.17;;;24.60;99.90;;;;;;5076504;28;20192;-95
2023/08/21 11:24:37;;;;;;;4.13;1.25;;;24.90;99.90;;;;;;5077613;28;20630;-96
2023/08/21 11:27:04;;;;;;;3.67;1.50;;;25.10;99.90;;;;;;5077937;28;20177;-94
2023/08/21 11:29:43;;;;;;;7.75;1.83;;;25.20;99.90;;;;;;5079565;28;20177;-96
2023/08/21 11:32:24;;;;;;;5.47;1.58;;;25.10;99.90;;;;;;5079524;28;20165;-95
2023/08/21 11:34:56;;;;;;;8.80;1.55;;;24.90;99.90;;;;;;5078485;28;20220;-96
2023/08/21 11:37:24;;;;;;;5.70;1.08;;;24.90;99.90;;;;;;5076989;28;20580;-96
2023/08/21 11:39:53;;;;;;;4.93;1.35;;;24.90;99.90;;;;;;5077528;28;20234;-95
2023/08/21 11:42:20;;;;;;;3.95;1.02;;;24.80;99.90;;;;;;5077499;28;20169;-93
2023/08/21 11:44:49;;;;;;;5.15;1.30;;;24.90;99.90;;;;;;5079872;28;20169;-93
2023/08/21 11:47:16;;;;;;;8.15;1.67;;;24.90;99.90;;;;;;5075346;28;20220;-94
2023/08/21 11:49:43;;;;;;;3.53;1.13;;;24.90;99.90;;;;;;5075810;28;20172;-91
2023/08/21 11:52:11;;;;;;;4.78;1.30;;;25.00;99.90;;;;;;5074357;28;20178;-91
2023/08/21 11:54:40;;;;;;;5.43;1.60;;;25.10;99.60;;;;;;5076223;28;20212;-95
2023/08/21 11:57:13;;;;;;;4.70;1.40;;;25.10;99.90;;;;;;5074267;28;20177;-91
2023/08/21 11:59:40;;;;;;;3.75;1.23;;;25.20;99.90;;;;;;5074022;28;20173;-91
2023/08/21 12:02:26;;;;;;;6.32;1.70;;;25.20;99.90;;;;;;5076058;28;20229;-95
2023/08/21 12:05:05;;;;;;;5.93;1.33;;;25.30;99.90;;;;;;5074014;28;20260;-92
2023/08/21 12:07:31;;;;;;;4.32;1.10;;;25.40;99.90;;;;;;5073904;28;20650;-94
2023/08/21 12:09:57;;;;;;;3.22;0.82;;;25.50;99.90;;;;;;5073998;28;20516;-92
2023/08/21 12:12:25;;;;;;;4.70;1.23;;;25.50;99.90;;;;;;5074465;28;20180;-92
2023/08/21 12:14:51;;;;;;;4.63;1.20;;;25.50;99.90;;;;;;5073875;28;20208;-91
2023/08/21 12:17:17;;;;;;;4.13;1.33;;;25.60;99.60;;;;;;5073865;28;20699;-95
2023/08/21 12:19:43;;;;;;;4.30;1.10;;;25.80;99.60;;;;;;5076662;28;20215;-94
2023/08/21 12:22:09;;;;;;;5.35;1.27;;;25.90;99.90;;;;;;5074512;28;20314;-91
2023/08/21 12:24:39;;;;;;;4.18;1.10;;;26.00;99.90;;;;;;5073364;28;20547;-93
2023/08/21 12:27:06;;;;;;;6.70;1.30;;;26.10;99.90;;;;;;5074000;28;20633;-95
2023/08/21 12:29:31;;;;;;;4.07;1.35;;;26.10;99.40;;;;;;5073681;28;20616;-91
2023/08/21 12:31:57;;;;;;;4.60;1.23;;;26.10;99.20;;;;;;5073850;28;20180;-95
2023/08/21 12:34:48;;;;;;;6.20;1.58;;;26.10;99.90;;;;;;5074136;28;20273;-95
2023/08/21 12:37:21;;;;;;;6.32;1.20;;;25.90;99.80;;;;;;5075336;28;20173;-95
2023/08/21 12:39:46;;;;;;;6.95;1.50;;;25.70;99.90;;;;;;5075251;28;20177;-93
2023/08/21 12:42:12;;;;;;;6.03;1.20;;;25.60;99.90;;;;;;5074610;28;20514;-93
2023/08/21 12:44:41;;;;;;;3.70;1.27;;;25.60;99.90;;;;;;5077475;28;20623;-96
2023/08/21 12:47:06;;;;;;;3.55;1.10;;;25.60;99.90;;;;;;5076641;28;20263;-93
2023/08/21 12:49:33;;;;;;;6.82;1.27;;;25.60;99.90;;;;;;5077624;28;20519;-94
2023/08/21 12:51:59;;;;;;;10.20;1.38;;;25.60;99.90;;;;;;5078598;28;20173;-96
2023/08/21 12:54:40;;;;;;;5.43;1.45;;;25.80;99.90;;;;;;5080157;28;20883;-92
2023/08/21 12:57:07;;;;;;;7.07;1.58;;;25.80;99.90;;;;;;5079308;28;20247;-93